createdAt,value
2017-03-21T04:01:19.038Z,71.22
2017-03-21T04:01:44.204Z,71.25
2017-03-21T04:02:09.761Z,71.06
2017-03-21T04:02:35.310Z,71.06
2017-03-21T04:03:00.963Z,71.16
2017-03-21T04:03:26.541Z,71.06
2017-03-21T04:03:52.097Z,71.06
2017-03-21T04:04:17.759Z,71.06
2017-03-21T04:04:43.311Z,71.16
2017-03-21T04:05:08.855Z,71.06
2017-03-21T04:05:34.520Z,71.06
2017-03-21T04:06:00.096Z,71.25
2017-03-21T04:06:25.649Z,70.97
2017-03-21T04:06:51.257Z,71.12
2017-03-21T04:07:16.882Z,71.16
2017-03-21T04:08:58.061Z,71.06
2017-03-21T04:09:24.459Z,71.16
2017-03-21T04:09:50.119Z,71.16
2017-03-21T04:10:43.341Z,71.55
2017-03-21T04:11:09.062Z,71.16
2017-03-21T04:11:34.625Z,71.12
2017-03-21T04:12:00.266Z,71.61
2017-03-21T04:12:25.858Z,71.51
2017-03-21T04:12:51.421Z,71.64
2017-03-21T04:13:17.059Z,71.61
2017-03-21T04:13:42.598Z,71.55
2017-03-21T04:14:08.160Z,71.61
2017-03-21T04:14:33.711Z,71.61
2017-03-21T04:14:59.260Z,71.64
2017-03-21T04:15:24.835Z,71.45
2017-03-21T04:16:34.239Z,71.41
2017-03-21T04:16:59.066Z,71.41
2017-03-21T04:17:24.640Z,71.55
2017-03-21T04:17:50.178Z,71.61
2017-03-21T04:18:15.750Z,71.64
2017-03-21T04:18:41.328Z,71.64
2017-03-21T04:19:06.945Z,71.61
2017-03-21T04:19:32.517Z,71.64
2017-03-21T04:19:58.126Z,71.45
2017-03-21T04:20:23.714Z,71.55
2017-03-21T04:20:49.267Z,71.45
2017-03-21T04:21:14.838Z,71.64
2017-03-21T04:21:40.426Z,71.61
2017-03-21T04:22:06.000Z,71.51
2017-03-21T04:22:31.590Z,71.55
2017-03-21T04:22:57.127Z,71.55
2017-03-21T04:23:22.677Z,71.55
2017-03-21T04:23:48.259Z,71.41
2017-03-21T04:24:13.884Z,71.31
2017-03-21T04:24:39.460Z,71.41
2017-03-21T04:25:05.028Z,71.35
2017-03-21T04:25:30.617Z,71.55
2017-03-21T04:25:56.230Z,71.55
2017-03-21T04:26:22.544Z,71.31
2017-03-21T04:26:48.215Z,71.45
2017-03-21T04:27:13.887Z,71.41
2017-03-21T04:27:39.461Z,71.41
2017-03-21T04:28:05.009Z,71.64
2017-03-21T04:28:30.661Z,71.64
2017-03-21T04:28:56.356Z,71.61
2017-03-21T04:29:21.922Z,71.8
2017-03-21T04:29:47.463Z,71.83
2017-03-21T04:30:13.021Z,71.8
2017-03-21T04:30:38.571Z,71.55
2017-03-21T04:31:04.098Z,71.89
2017-03-21T04:31:29.634Z,72.12
2017-03-21T04:31:55.168Z,71.98
2017-03-21T04:32:20.722Z,71.8
2017-03-21T04:32:46.318Z,71.89
2017-03-21T04:33:11.860Z,71.8
2017-03-21T04:33:37.438Z,71.98
2017-03-21T04:34:02.993Z,71.98
2017-03-21T04:34:28.648Z,72.12
2017-03-21T04:34:54.214Z,71.7
2017-03-21T04:35:19.813Z,72.12
2017-03-21T04:35:45.432Z,71.93
2017-03-21T04:36:10.992Z,71.89
2017-03-21T04:36:36.559Z,71.89
2017-03-21T04:37:02.116Z,71.98
2017-03-21T04:37:27.785Z,72.08
2017-03-21T04:37:58.511Z,72.31
2017-03-21T04:38:24.074Z,72.28
2017-03-21T04:38:50.292Z,71.98
2017-03-21T04:39:15.861Z,72.28
2017-03-21T04:39:41.440Z,72.37
2017-03-21T04:40:07.662Z,72.28
2017-03-21T04:40:33.299Z,72.28
2017-03-21T04:40:59.443Z,72.18
2017-03-21T04:41:25.062Z,71.98
2017-03-21T04:41:50.665Z,72.08
2017-03-21T04:42:16.870Z,72.08
2017-03-21T04:42:42.613Z,72.02
2017-03-21T04:43:08.597Z,72.08
2017-03-21T04:43:34.170Z,72.08
2017-03-21T04:44:00.401Z,71.89
2017-03-21T04:44:25.961Z,71.8
2017-03-21T04:44:51.562Z,71.89
2017-03-21T04:45:17.722Z,72.08
2017-03-21T04:45:43.272Z,72.08
2017-03-21T04:46:09.540Z,72.47
2017-03-21T04:47:13.157Z,72.75
2017-03-21T04:47:38.710Z,72.66
2017-03-21T04:48:04.270Z,72.18
2017-03-21T04:48:29.842Z,72.28
2017-03-21T04:48:55.431Z,72.28
2017-03-21T04:49:20.988Z,72.37
2017-03-21T04:49:46.573Z,72.5
2017-03-21T04:50:12.139Z,72.47
2017-03-21T04:50:37.691Z,72.47
2017-03-21T04:51:03.258Z,72.08
2017-03-21T04:51:28.831Z,72.12
2017-03-21T04:51:54.388Z,72.08
2017-03-21T04:52:19.943Z,72.31
2017-03-21T04:52:45.502Z,72.08
2017-03-21T04:53:11.142Z,72.37
2017-03-21T04:53:36.687Z,72.08
2017-03-21T04:54:02.361Z,72.12
2017-03-21T04:54:28.257Z,72.41
2017-03-21T04:54:53.885Z,72.41
2017-03-21T04:55:19.442Z,72.41
2017-03-21T04:55:45.911Z,72.95
2017-03-21T04:56:10.677Z,72.28
2017-03-21T04:56:36.238Z,72.18
2017-03-21T04:57:01.787Z,72.99
2017-03-21T04:57:27.410Z,72.95
2017-03-21T04:57:52.944Z,72.41
2017-03-21T04:58:18.488Z,72.56
2017-03-21T04:58:44.026Z,73.04
2017-03-21T04:59:57.761Z,72.79
2017-03-21T05:00:23.311Z,72.66
2017-03-21T05:00:48.868Z,72.69
2017-03-21T05:01:14.470Z,72.66
2017-03-21T05:01:40.087Z,72.69
2017-03-21T05:02:05.648Z,72.69
2017-03-21T05:02:32.029Z,72.75
2017-03-21T05:02:56.770Z,72.75
2017-03-21T05:03:22.342Z,72.99
2017-03-21T05:03:47.888Z,72.6
2017-03-21T05:04:13.456Z,72.56
2017-03-21T05:04:39.033Z,72.95
2017-03-21T05:05:04.588Z,72.75
2017-03-21T05:05:30.232Z,72.79
2017-03-21T05:05:55.799Z,72.69
2017-03-21T05:06:21.351Z,72.69
2017-03-21T05:06:46.970Z,72.56
2017-03-21T05:07:12.514Z,72.6
2017-03-21T05:07:38.305Z,72.66
2017-03-21T05:08:03.881Z,72.6
2017-03-21T05:08:29.431Z,72.56
2017-03-21T05:08:54.985Z,72.56
2017-03-21T05:09:20.516Z,72.56
2017-03-21T05:09:46.089Z,72.47
2017-03-21T05:10:12.536Z,72.79
2017-03-21T05:10:37.196Z,72.47
2017-03-21T05:11:03.489Z,72.66
2017-03-21T05:11:29.041Z,72.6
2017-03-21T05:11:54.616Z,72.6
2017-03-21T05:12:20.205Z,72.5
2017-03-21T05:12:45.769Z,72.6
2017-03-21T05:13:11.323Z,72.79
2017-03-21T05:13:36.884Z,72.56
2017-03-21T05:14:02.455Z,72.75
2017-03-21T05:14:28.020Z,72.75
2017-03-21T05:14:53.563Z,72.6
2017-03-21T05:15:19.148Z,72.5
2017-03-21T05:15:44.905Z,72.79
2017-03-21T05:16:10.449Z,72.6
2017-03-21T05:16:35.989Z,72.47
2017-03-21T05:17:01.539Z,72.6
2017-03-21T05:17:27.081Z,72.69
2017-03-21T05:17:52.630Z,72.56
2017-03-21T05:18:18.212Z,72.6
2017-03-21T05:18:43.758Z,72.75
2017-03-21T05:19:09.509Z,72.75
2017-03-21T05:19:35.072Z,72.99
2017-03-21T05:20:00.641Z,72.6
2017-03-21T05:20:26.197Z,72.66
2017-03-21T05:20:51.788Z,72.99
2017-03-21T05:21:17.350Z,72.66
2017-03-21T05:21:43.799Z,72.79
2017-03-21T05:22:09.434Z,72.89
2017-03-21T05:22:35.145Z,72.89
2017-03-21T05:23:01.472Z,73.08
2017-03-21T05:23:27.044Z,73.08
2017-03-21T05:23:52.624Z,73.24
2017-03-21T05:24:18.202Z,73.27
2017-03-21T05:24:43.766Z,73.24
2017-03-21T05:25:09.321Z,73.04
2017-03-21T05:25:34.850Z,73.27
2017-03-21T05:26:00.409Z,73.08
2017-03-21T05:26:25.956Z,73.08
2017-03-21T05:26:51.690Z,73.08
2017-03-21T05:27:17.225Z,73.18
2017-03-21T05:27:42.808Z,73.14
2017-03-21T05:28:08.359Z,73.18
2017-03-21T05:28:33.909Z,73.18
2017-03-21T05:28:59.467Z,73.37
2017-03-21T05:29:24.998Z,73.14
2017-03-21T05:29:50.553Z,73.27
2017-03-21T05:30:16.120Z,73.18
2017-03-21T05:30:41.687Z,72.95
2017-03-21T05:31:07.236Z,73.08
2017-03-21T05:31:32.816Z,72.85
2017-03-21T05:31:58.380Z,72.99
2017-03-21T05:32:23.935Z,73.24
2017-03-21T05:33:17.281Z,72.79
2017-03-21T05:33:42.837Z,72.75
2017-03-21T05:34:08.412Z,72.75
2017-03-21T05:34:33.980Z,72.89
2017-03-21T05:35:32.070Z,72.85
2017-03-21T05:35:57.625Z,72.89
2017-03-21T05:36:23.214Z,73.08
2017-03-21T05:36:48.866Z,72.28
2017-03-21T05:37:14.446Z,72.12
2017-03-21T05:37:40.006Z,72.41
2017-03-21T05:38:05.579Z,72.5
2017-03-21T05:38:31.140Z,72.5
2017-03-21T05:38:56.704Z,72.56
2017-03-21T05:39:22.255Z,72.69
2017-03-21T05:39:47.843Z,71.83
2017-03-21T05:40:13.422Z,72.18
2017-03-21T05:40:39.020Z,72.31
2017-03-21T05:41:04.558Z,72.31
2017-03-21T05:41:30.100Z,71.83
2017-03-21T05:41:56.324Z,72.22
2017-03-21T05:42:21.874Z,71.83
2017-03-21T05:42:47.441Z,71.8
2017-03-21T05:43:13.007Z,71.89
2017-03-21T05:43:38.568Z,72.02
2017-03-21T05:44:04.120Z,71.93
2017-03-21T05:44:29.666Z,71.61
2017-03-21T05:44:55.222Z,71.45
2017-03-21T05:45:20.783Z,71.45
2017-03-21T05:45:46.366Z,71.64
2017-03-21T05:46:11.926Z,71.51
2017-03-21T05:46:37.477Z,71.64
2017-03-21T05:47:03.020Z,71.51
2017-03-21T05:47:28.637Z,71.64
2017-03-21T05:47:54.296Z,71.83
2017-03-21T05:48:19.971Z,71.8
2017-03-21T05:48:45.512Z,71.12
2017-03-21T05:49:11.090Z,71.12
2017-03-21T05:49:36.649Z,70.93
2017-03-21T05:50:02.289Z,71.16
2017-03-21T05:50:27.838Z,70.97
2017-03-21T05:50:53.401Z,70.78
2017-03-21T05:51:18.980Z,71.06
2017-03-21T05:51:44.518Z,71.16
2017-03-21T05:52:10.079Z,71.25
2017-03-21T05:52:35.643Z,71.12
2017-03-21T05:53:01.214Z,71.35
2017-03-21T05:53:26.782Z,70.78
2017-03-21T05:53:52.331Z,71.16
2017-03-21T05:54:17.930Z,70.55
2017-03-21T05:54:43.470Z,70.87
2017-03-21T05:55:09.030Z,70.64
2017-03-21T05:55:34.601Z,70.68
2017-03-21T05:56:00.151Z,70.45
2017-03-21T05:56:25.726Z,70.39
2017-03-21T05:56:51.309Z,70.39
2017-03-21T05:58:05.002Z,70.17
2017-03-21T05:58:30.581Z,70.45
2017-03-21T05:58:56.284Z,70.2
2017-03-21T05:59:21.856Z,70.39
2017-03-21T05:59:47.429Z,70.39
2017-03-21T06:00:13.009Z,69.81
2017-03-21T06:00:38.685Z,69.72
2017-03-21T06:01:04.250Z,69.91
2017-03-21T06:01:29.810Z,69.72
2017-03-21T06:01:55.379Z,69.81
2017-03-21T06:02:20.973Z,69.91
2017-03-21T06:02:47.075Z,69.72
2017-03-21T06:03:12.672Z,70.01
2017-03-21T06:04:26.699Z,70.01
2017-03-21T06:04:52.273Z,70.07
2017-03-21T06:05:18.692Z,69.91
2017-03-21T06:05:43.392Z,69.78
2017-03-21T06:06:08.943Z,70.2
2017-03-21T06:06:34.650Z,69.78
2017-03-21T06:07:00.201Z,69.91
2017-03-21T06:07:25.745Z,69.78
2017-03-21T06:07:51.371Z,69.78
2017-03-21T06:08:16.916Z,69.59
2017-03-21T06:08:42.475Z,69.78
2017-03-21T06:09:08.019Z,69.72
2017-03-21T06:09:33.551Z,69.43
2017-03-21T06:09:59.128Z,69.4
2017-03-21T06:10:24.767Z,69.53
2017-03-21T06:10:50.348Z,69.62
2017-03-21T06:11:16.693Z,69.2
2017-03-21T06:11:41.470Z,69.3
2017-03-21T06:12:07.017Z,68.91
2017-03-21T06:12:32.618Z,69.62
2017-03-21T06:12:58.184Z,69.14
2017-03-21T06:13:23.731Z,68.76
2017-03-21T06:13:49.302Z,69.53
2017-03-21T06:14:14.861Z,68.82
2017-03-21T06:14:40.419Z,69.24
2017-03-21T06:15:05.996Z,69.11
2017-03-21T06:15:31.570Z,69.4
2017-03-21T06:15:57.138Z,69.14
2017-03-21T06:16:22.788Z,69.3
2017-03-21T06:16:48.405Z,68.85
2017-03-21T06:17:13.983Z,69.53
2017-03-21T06:17:39.550Z,69.34
2017-03-21T06:18:05.161Z,68.85
2017-03-21T06:18:30.713Z,68.47
2017-03-21T06:18:56.267Z,69.11
2017-03-21T06:19:21.806Z,69.49
2017-03-21T06:19:47.366Z,69.24
2017-03-21T06:20:12.927Z,69.49
2017-03-21T06:20:38.578Z,69.24
2017-03-21T06:21:04.144Z,68.76
2017-03-21T06:21:29.713Z,68.95
2017-03-21T06:21:55.348Z,68.76
2017-03-21T06:22:20.874Z,68.82
2017-03-21T06:22:46.447Z,68.76
2017-03-21T06:23:12.149Z,68.66
2017-03-21T06:23:37.705Z,68.95
2017-03-21T06:24:03.425Z,68.76
2017-03-21T06:24:28.994Z,68.57
2017-03-21T06:24:54.553Z,68.66
2017-03-21T06:25:20.195Z,68.63
2017-03-21T06:25:45.736Z,68.47
2017-03-21T06:26:54.315Z,69.24
2017-03-21T06:27:21.644Z,69.11
2017-03-21T06:27:46.280Z,69.14
2017-03-21T06:28:11.845Z,69.05
2017-03-21T06:28:37.410Z,68.91
2017-03-21T06:29:02.952Z,68.82
2017-03-21T06:29:28.519Z,69.01
2017-03-21T06:29:54.101Z,69.14
2017-03-21T06:30:19.702Z,68.76
2017-03-21T06:30:45.247Z,69.2
2017-03-21T06:31:10.822Z,69.2
2017-03-21T06:31:36.363Z,69.24
2017-03-21T06:32:01.914Z,68.91
2017-03-21T06:32:27.470Z,69.34
2017-03-21T06:32:53.167Z,69.43
2017-03-21T06:33:18.719Z,69.34
2017-03-21T06:33:44.316Z,69.11
2017-03-21T06:34:09.883Z,69.24
2017-03-21T06:34:35.448Z,69.4
2017-03-21T06:35:01.003Z,69.34
2017-03-21T06:35:26.547Z,69.11
2017-03-21T06:35:52.104Z,69.11
2017-03-21T06:36:17.772Z,69.34
2017-03-21T06:36:43.329Z,69.14
2017-03-21T06:37:08.875Z,69.11
2017-03-21T06:37:34.435Z,69.53
2017-03-21T06:37:59.956Z,69.43
2017-03-21T06:38:25.585Z,69.4
2017-03-21T06:38:51.136Z,69.43
2017-03-21T06:39:16.680Z,69.3
2017-03-21T06:39:42.389Z,69.59
2017-03-21T06:40:08.838Z,69.3
2017-03-21T06:40:34.419Z,69.49
2017-03-21T06:41:00.130Z,69.3
2017-03-21T06:41:25.694Z,69.3
2017-03-21T06:41:51.268Z,69.59
2017-03-21T06:42:16.833Z,69.59
2017-03-21T06:42:42.385Z,69.3
2017-03-21T06:43:07.947Z,69.4
2017-03-21T06:43:33.518Z,69.49
2017-03-21T06:43:59.113Z,69.4
2017-03-21T06:44:24.659Z,69.4
2017-03-21T06:44:50.204Z,69.59
2017-03-21T06:45:15.788Z,69.68
2017-03-21T06:45:41.366Z,69.68
2017-03-21T06:46:06.927Z,69.4
2017-03-21T06:46:32.502Z,69.01
2017-03-21T06:46:58.648Z,69.43
2017-03-21T06:47:23.619Z,69.49
2017-03-21T06:47:49.270Z,69.59
2017-03-21T06:48:15.406Z,69.2
2017-03-21T06:48:40.973Z,69.49
2017-03-21T06:49:06.623Z,69.3
2017-03-21T06:49:32.198Z,69.53
2017-03-21T06:49:57.753Z,69.4
2017-03-21T06:50:23.330Z,69.4
2017-03-21T06:50:48.883Z,69.11
2017-03-21T06:51:14.447Z,69.59
2017-03-21T06:51:40.007Z,69.49
2017-03-21T06:52:05.582Z,69.49
2017-03-21T06:52:31.131Z,69.59
2017-03-21T06:52:56.678Z,69.49
2017-03-21T06:53:22.261Z,69.59
2017-03-21T06:53:47.810Z,69.11
2017-03-21T06:54:13.370Z,69.11
2017-03-21T06:54:38.928Z,69.01
2017-03-21T06:55:04.496Z,69.49
2017-03-21T06:55:30.142Z,69.2
2017-03-21T06:55:55.708Z,69.49
2017-03-21T06:56:21.304Z,69.4
2017-03-21T06:56:46.868Z,69.4
2017-03-21T06:57:12.430Z,69.14
2017-03-21T06:57:38.049Z,69.2
2017-03-21T06:58:03.786Z,69.4
2017-03-21T06:58:29.362Z,69.49
2017-03-21T06:58:54.915Z,69.4
2017-03-21T06:59:20.480Z,69.43
2017-03-21T06:59:46.029Z,69.49
2017-03-21T07:00:54.696Z,69.87
2017-03-21T07:01:20.291Z,69.87
2017-03-21T07:01:45.828Z,69.97
2017-03-21T07:02:11.425Z,69.72
2017-03-21T07:02:36.969Z,69.87
2017-03-21T07:03:02.530Z,69.49
2017-03-21T07:03:28.086Z,69.68
2017-03-21T07:03:53.672Z,69.78
2017-03-21T07:04:19.946Z,69.87
2017-03-21T07:04:45.568Z,69.97
2017-03-21T07:05:11.190Z,69.97
2017-03-21T07:05:36.745Z,69.68
2017-03-21T07:06:02.289Z,70.07
2017-03-21T07:06:28.749Z,69.81
2017-03-21T07:06:54.300Z,69.49
2017-03-21T07:07:19.894Z,69.49
2017-03-21T07:07:45.412Z,69.78
2017-03-21T07:08:10.977Z,69.68
2017-03-21T07:08:36.526Z,69.78
2017-03-21T07:09:02.089Z,69.68
2017-03-21T07:09:27.628Z,69.49
2017-03-21T07:09:53.168Z,69.78
2017-03-21T07:10:18.812Z,69.49
2017-03-21T07:10:44.365Z,69.53
2017-03-21T07:11:09.926Z,69.49
2017-03-21T07:11:35.490Z,69.49
2017-03-21T07:12:01.058Z,69.68
2017-03-21T07:12:26.599Z,69.68
2017-03-21T07:12:52.160Z,69.68
2017-03-21T07:13:17.695Z,69.68
2017-03-21T07:13:43.260Z,69.68
2017-03-21T07:14:08.898Z,69.53
2017-03-21T07:15:07.394Z,69.49
2017-03-21T07:15:32.947Z,69.62
2017-03-21T07:15:58.499Z,69.59
2017-03-21T07:16:24.078Z,69.59
2017-03-21T07:16:49.644Z,69.49
2017-03-21T07:17:15.298Z,69.59
2017-03-21T07:17:40.859Z,69.4
2017-03-21T07:18:06.448Z,69.68
2017-03-21T07:18:32.037Z,69.87
2017-03-21T07:18:57.585Z,69.87
2017-03-21T07:19:23.127Z,69.97
2017-03-21T07:19:48.678Z,69.97
2017-03-21T07:20:14.227Z,69.97
2017-03-21T07:20:39.838Z,69.97
2017-03-21T07:21:05.389Z,69.97
2017-03-21T07:21:30.948Z,69.78
2017-03-21T07:21:56.501Z,70.07
2017-03-21T07:22:22.061Z,69.78
2017-03-21T07:22:47.607Z,69.62
2017-03-21T07:23:13.159Z,69.59
2017-03-21T07:23:38.716Z,69.59
2017-03-21T07:24:04.281Z,69.78
2017-03-21T07:24:29.811Z,69.68
2017-03-21T07:24:55.361Z,69.68
2017-03-21T07:25:20.948Z,69.87
2017-03-21T07:25:46.506Z,69.68
2017-03-21T07:26:12.085Z,69.68
2017-03-21T07:26:37.644Z,69.81
2017-03-21T07:27:03.317Z,69.68
2017-03-21T07:27:28.904Z,69.78
2017-03-21T07:27:54.454Z,69.78
2017-03-21T07:28:20.600Z,69.87
2017-03-21T07:28:45.569Z,69.87
2017-03-21T07:29:11.113Z,69.78
2017-03-21T07:29:36.651Z,69.78
2017-03-21T07:30:02.218Z,69.78
2017-03-21T07:30:27.750Z,69.78
2017-03-21T07:30:53.320Z,69.97
2017-03-21T07:31:19.261Z,69.59
2017-03-21T07:31:44.830Z,69.97
2017-03-21T07:32:10.405Z,70.01
2017-03-21T07:32:35.968Z,70.07
2017-03-21T07:33:02.106Z,69.59
2017-03-21T07:33:27.081Z,69.59
2017-03-21T07:34:35.751Z,69.4
2017-03-21T07:35:01.311Z,69.87
2017-03-21T07:35:26.869Z,70.07
2017-03-21T07:35:52.525Z,70.17
2017-03-21T07:36:18.087Z,70.17
2017-03-21T07:36:43.653Z,70.17
2017-03-21T07:37:09.358Z,70.07
2017-03-21T07:37:34.925Z,70.07
2017-03-21T07:38:00.530Z,70.17
2017-03-21T07:38:26.080Z,70.07
2017-03-21T07:38:51.732Z,70.17
2017-03-21T07:39:17.319Z,69.97
2017-03-21T07:39:42.870Z,69.49
2017-03-21T07:40:08.431Z,69.78
2017-03-21T07:40:34.021Z,69.97
2017-03-21T07:40:59.630Z,70.17
2017-03-21T07:41:25.179Z,70.17
2017-03-21T07:41:50.751Z,70.17
2017-03-21T07:42:16.306Z,69.87
2017-03-21T07:42:41.875Z,69.97
2017-03-21T07:43:07.446Z,69.59
2017-03-21T07:43:33.032Z,69.87
2017-03-21T07:43:58.723Z,70.17
2017-03-21T07:44:24.283Z,69.59
2017-03-21T07:44:49.832Z,69.78
2017-03-21T07:45:15.423Z,69.87
2017-03-21T07:45:40.996Z,69.68
2017-03-21T07:46:06.660Z,69.97
2017-03-21T07:46:32.232Z,69.49
2017-03-21T07:46:57.891Z,69.87
2017-03-21T07:47:23.449Z,69.87
2017-03-21T07:47:48.989Z,69.87
2017-03-21T07:48:14.666Z,70.1
2017-03-21T07:48:40.248Z,69.97
2017-03-21T07:49:05.797Z,69.87
2017-03-21T07:49:31.342Z,70.07
2017-03-21T07:49:56.883Z,69.97
2017-03-21T07:50:22.459Z,69.49
2017-03-21T07:50:48.018Z,69.68
2017-03-21T07:51:13.560Z,69.59
2017-03-21T07:51:39.116Z,69.87
2017-03-21T07:52:04.670Z,70.07
2017-03-21T07:52:30.244Z,70.17
2017-03-21T07:52:55.833Z,69.78
2017-03-21T07:53:21.398Z,69.59
2017-03-21T07:53:46.939Z,69.97
2017-03-21T07:54:12.489Z,69.87
2017-03-21T07:54:38.024Z,69.78
2017-03-21T07:55:03.590Z,69.97
2017-03-21T07:55:29.137Z,69.78
2017-03-21T07:55:54.695Z,69.78
2017-03-21T07:56:20.288Z,69.87
2017-03-21T07:56:45.842Z,69.87
2017-03-21T07:57:11.392Z,69.78
2017-03-21T07:57:36.968Z,69.97
2017-03-21T07:58:02.518Z,70.17
2017-03-21T07:58:28.084Z,70.26
2017-03-21T07:58:53.713Z,69.78
2017-03-21T07:59:19.346Z,69.78
2017-03-21T07:59:44.894Z,69.87
2017-03-21T08:00:10.487Z,69.68
2017-03-21T08:00:36.070Z,69.97
2017-03-21T08:01:49.859Z,69.68
2017-03-21T08:02:15.453Z,69.68
2017-03-21T08:02:41.006Z,69.68
2017-03-21T08:03:06.669Z,69.78
2017-03-21T08:03:32.250Z,70.17
2017-03-21T08:03:57.827Z,69.68
2017-03-21T08:04:23.410Z,69.68
2017-03-21T08:04:48.986Z,69.68
2017-03-21T08:05:14.560Z,69.97
2017-03-21T08:05:40.127Z,69.87
2017-03-21T08:06:05.727Z,69.68
2017-03-21T08:06:32.174Z,69.68
2017-03-21T08:06:57.733Z,69.87
2017-03-21T08:07:23.318Z,70.07
2017-03-21T08:07:48.882Z,69.68
2017-03-21T08:08:57.523Z,69.87
2017-03-21T08:09:23.098Z,69.68
2017-03-21T08:09:48.658Z,69.78
2017-03-21T08:10:14.220Z,69.87
2017-03-21T08:11:17.514Z,69.87
2017-03-21T08:11:43.101Z,69.87
2017-03-21T08:12:08.661Z,69.78
2017-03-21T08:12:34.231Z,69.87
2017-03-21T08:12:59.790Z,69.87
2017-03-21T08:13:25.361Z,70.2
2017-03-21T08:13:50.895Z,70.07
2017-03-21T08:14:16.469Z,69.87
2017-03-21T08:14:42.026Z,69.87
2017-03-21T08:15:07.578Z,69.87
2017-03-21T08:15:33.242Z,69.68
2017-03-21T08:15:58.799Z,70.17
2017-03-21T08:16:24.461Z,69.78
2017-03-21T08:16:50.038Z,70.07
2017-03-21T08:17:15.590Z,69.87
2017-03-21T08:17:41.160Z,69.87
2017-03-21T08:18:06.713Z,69.68
2017-03-21T08:18:32.295Z,69.87
2017-03-21T08:18:57.874Z,69.87
2017-03-21T08:19:23.411Z,70.07
2017-03-21T08:19:48.970Z,69.97
2017-03-21T08:20:14.540Z,69.97
2017-03-21T08:20:41.015Z,70.07
2017-03-21T08:21:06.584Z,70.07
2017-03-21T08:21:32.148Z,69.97
2017-03-21T08:21:57.829Z,69.87
2017-03-21T08:22:23.448Z,70.07
2017-03-21T08:22:49.001Z,70.07
2017-03-21T08:23:14.576Z,70.07
2017-03-21T08:23:40.190Z,69.87
2017-03-21T08:24:05.752Z,70.07
2017-03-21T08:24:31.294Z,69.97
2017-03-21T08:24:56.956Z,69.87
2017-03-21T08:25:22.508Z,70.07
2017-03-21T08:25:48.097Z,70.07
2017-03-21T08:26:13.731Z,70.07
2017-03-21T08:26:39.278Z,69.87
2017-03-21T08:27:04.819Z,70.07
2017-03-21T08:27:30.370Z,70.07
2017-03-21T08:27:55.917Z,70.07
2017-03-21T08:28:21.485Z,69.87
2017-03-21T08:28:47.022Z,70.07
2017-03-21T08:29:12.556Z,70.07
2017-03-21T08:29:38.108Z,70.07
2017-03-21T08:30:03.678Z,70.07
2017-03-21T08:30:29.241Z,70.07
2017-03-21T08:30:54.881Z,69.87
2017-03-21T08:31:20.434Z,69.68
2017-03-21T08:31:45.984Z,70.07
2017-03-21T08:32:11.558Z,70.07
2017-03-21T08:32:37.141Z,69.87
2017-03-21T08:33:02.696Z,70.07
2017-03-21T08:33:28.539Z,70.07
2017-03-21T08:33:54.133Z,70.07
2017-03-21T08:34:19.689Z,69.87
2017-03-21T08:34:45.230Z,69.87
2017-03-21T08:35:10.920Z,69.59
2017-03-21T08:35:36.477Z,70.07
2017-03-21T08:36:02.052Z,69.87
2017-03-21T08:36:27.612Z,69.87
2017-03-21T08:36:53.176Z,69.87
2017-03-21T08:37:18.742Z,69.78
2017-03-21T08:37:44.312Z,69.97
2017-03-21T08:38:10.327Z,69.87
2017-03-21T08:39:24.059Z,69.87
2017-03-21T08:39:49.611Z,69.97
2017-03-21T08:40:15.176Z,69.68
2017-03-21T08:42:22.645Z,69.87
2017-03-21T08:42:48.648Z,69.78
2017-03-21T08:43:14.841Z,69.59
2017-03-21T08:43:39.540Z,69.59
2017-03-21T08:44:05.142Z,69.78
2017-03-21T08:44:30.709Z,69.78
2017-03-21T08:44:56.328Z,69.78
2017-03-21T08:45:21.900Z,69.68
2017-03-21T08:45:47.460Z,69.78
2017-03-21T08:46:13.101Z,69.78
2017-03-21T08:46:38.681Z,69.97
2017-03-21T08:47:04.232Z,69.68
2017-03-21T08:47:29.883Z,69.78
2017-03-21T08:47:55.442Z,69.87
2017-03-21T08:48:20.982Z,69.87
2017-03-21T08:48:46.567Z,69.97
2017-03-21T08:49:12.097Z,69.78
2017-03-21T08:49:37.670Z,69.59
2017-03-21T08:50:03.295Z,69.78
2017-03-21T08:50:28.840Z,69.97
2017-03-21T08:50:54.400Z,69.87
2017-03-21T08:51:19.931Z,69.59
2017-03-21T08:51:45.497Z,69.78
2017-03-21T08:52:11.099Z,69.59
2017-03-21T08:52:36.634Z,69.59
2017-03-21T08:53:02.217Z,69.87
2017-03-21T08:53:27.804Z,69.97
2017-03-21T08:53:53.423Z,69.78
2017-03-21T08:54:18.951Z,69.59
2017-03-21T08:54:44.628Z,70.07
2017-03-21T08:55:10.165Z,69.97
2017-03-21T08:55:35.715Z,69.97
2017-03-21T08:56:01.271Z,69.68
2017-03-21T08:56:26.830Z,69.59
2017-03-21T08:56:52.416Z,69.68
2017-03-21T08:57:17.995Z,69.59
2017-03-21T08:57:43.562Z,69.78
2017-03-21T08:58:09.133Z,69.87
2017-03-21T08:58:34.733Z,69.97
2017-03-21T08:59:00.286Z,69.59
2017-03-21T08:59:25.870Z,69.59
2017-03-21T08:59:51.531Z,69.68
2017-03-21T09:00:17.286Z,69.68
2017-03-21T09:00:42.841Z,69.97
2017-03-21T09:01:08.426Z,69.59
2017-03-21T09:01:33.985Z,69.97
2017-03-21T09:01:59.548Z,69.97
2017-03-21T09:02:25.108Z,69.97
2017-03-21T09:02:50.819Z,69.87
2017-03-21T09:03:16.412Z,69.78
2017-03-21T09:03:41.957Z,69.97
2017-03-21T09:04:07.540Z,70.07
2017-03-21T09:04:33.089Z,69.68
2017-03-21T09:04:58.651Z,69.97
2017-03-21T09:05:24.222Z,69.78
2017-03-21T09:05:49.834Z,69.78
2017-03-21T09:06:15.395Z,69.97
2017-03-21T09:06:40.962Z,69.87
2017-03-21T09:07:06.536Z,70.01
2017-03-21T09:07:32.110Z,69.78
2017-03-21T09:07:57.681Z,70.07
2017-03-21T09:08:23.368Z,70.07
2017-03-21T09:08:48.951Z,69.87
2017-03-21T09:09:57.722Z,69.78
2017-03-21T09:10:23.372Z,69.87
2017-03-21T09:10:48.937Z,69.78
2017-03-21T09:11:14.577Z,69.97
2017-03-21T09:11:40.082Z,69.87
2017-03-21T09:12:05.649Z,69.87
2017-03-21T09:12:31.216Z,69.87
2017-03-21T09:12:56.813Z,69.78
2017-03-21T09:13:22.367Z,69.97
2017-03-21T09:13:47.926Z,69.68
2017-03-21T09:14:13.483Z,69.97
2017-03-21T09:14:39.055Z,69.97
2017-03-21T09:15:04.599Z,69.87
2017-03-21T09:15:30.172Z,69.97
2017-03-21T09:15:55.729Z,69.97
2017-03-21T09:16:21.295Z,69.87
2017-03-21T09:16:46.841Z,69.97
2017-03-21T09:17:12.401Z,69.87
2017-03-21T09:17:38.010Z,69.87
2017-03-21T09:18:03.579Z,69.97
2017-03-21T09:18:29.156Z,69.87
2017-03-21T09:18:54.747Z,69.87
2017-03-21T09:19:20.289Z,69.87
2017-03-21T09:19:45.861Z,69.68
2017-03-21T09:20:11.499Z,69.87
2017-03-21T09:20:37.054Z,69.78
2017-03-21T09:21:02.652Z,69.97
2017-03-21T09:21:28.340Z,69.87
2017-03-21T09:21:53.908Z,69.97
2017-03-21T09:22:19.499Z,69.97
2017-03-21T09:22:45.042Z,69.87
2017-03-21T09:23:10.597Z,69.78
2017-03-21T09:23:36.160Z,69.87
2017-03-21T09:24:01.734Z,69.87
2017-03-21T09:24:27.301Z,69.87
2017-03-21T09:24:52.859Z,69.87
2017-03-21T09:25:18.424Z,69.87
2017-03-21T09:25:43.992Z,69.87
2017-03-21T09:26:09.550Z,69.87
2017-03-21T09:26:35.100Z,69.87
2017-03-21T09:27:00.671Z,69.87
2017-03-21T09:27:26.236Z,69.78
2017-03-21T09:27:51.811Z,69.87
2017-03-21T09:28:17.391Z,69.87
2017-03-21T09:28:43.025Z,69.78
2017-03-21T09:29:08.584Z,69.97
2017-03-21T09:29:34.241Z,69.87
2017-03-21T09:29:59.881Z,69.87
2017-03-21T09:30:25.457Z,69.87
2017-03-21T09:30:51.010Z,69.87
2017-03-21T09:31:16.567Z,69.87
2017-03-21T09:31:42.141Z,69.97
2017-03-21T09:32:07.707Z,69.87
2017-03-21T09:32:33.281Z,69.87
2017-03-21T09:32:58.819Z,69.68
2017-03-21T09:33:24.485Z,69.97
2017-03-21T09:33:50.047Z,69.87
2017-03-21T09:34:15.605Z,69.87
2017-03-21T09:34:41.172Z,69.87
2017-03-21T09:35:06.744Z,69.87
2017-03-21T09:35:32.988Z,69.87
2017-03-21T09:35:57.849Z,69.78
2017-03-21T09:36:23.389Z,69.78
2017-03-21T09:36:48.958Z,69.87
2017-03-21T09:37:14.609Z,69.87
2017-03-21T09:37:40.262Z,69.87
2017-03-21T09:38:05.834Z,69.87
2017-03-21T09:38:31.369Z,69.87
2017-03-21T09:38:56.916Z,69.59
2017-03-21T09:39:22.483Z,69.97
2017-03-21T09:39:48.060Z,69.87
2017-03-21T09:40:13.604Z,69.87
2017-03-21T09:40:39.333Z,69.87
2017-03-21T09:41:04.881Z,69.87
2017-03-21T09:41:30.423Z,69.87
2017-03-21T09:41:56.006Z,69.97
2017-03-21T09:42:21.538Z,69.97
2017-03-21T09:42:47.089Z,69.68
2017-03-21T09:43:12.757Z,69.87
2017-03-21T09:43:38.340Z,69.87
2017-03-21T09:44:03.941Z,69.87
2017-03-21T09:44:29.504Z,69.68
2017-03-21T09:44:55.040Z,69.87
2017-03-21T09:45:20.585Z,69.59
2017-03-21T09:45:46.199Z,69.97
2017-03-21T09:46:11.711Z,69.87